createdAt,value
2018-02-12T00:01:56.444Z,1.40
2018-02-12T00:04:24.745Z,1.40
2018-02-12T00:06:52.267Z,1.40
2018-02-12T00:09:19.797Z,1.40
2018-02-12T00:11:47.317Z,1.40
2018-02-12T00:14:15.620Z,1.40
2018-02-12T00:16:43.138Z,1.40
2018-02-12T00:19:11.437Z,1.40
2018-02-12T00:21:38.948Z,1.50
2018-02-12T00:24:06.493Z,1.50
2018-02-12T00:26:34.013Z,1.50
2018-02-12T00:29:02.322Z,1.50
2018-02-12T00:31:29.865Z,1.50
2018-02-12T00:33:57.393Z,1.50
2018-02-12T00:36:25.677Z,1.50
2018-02-12T00:38:53.989Z,1.50
2018-02-12T00:41:21.513Z,1.50
2018-02-12T00:43:49.821Z,1.50
2018-02-12T00:46:17.343Z,1.50
2018-02-12T00:48:44.876Z,1.50
2018-02-12T00:51:12.398Z,1.50
2018-02-12T00:53:39.933Z,1.50
2018-02-12T00:56:08.246Z,1.50
2018-02-12T00:58:35.785Z,1.50
2018-02-12T01:01:03.303Z,1.40
2018-02-12T01:03:30.834Z,1.40
2018-02-12T01:05:58.353Z,1.40
2018-02-12T01:08:26.657Z,1.40
2018-02-12T01:10:54.172Z,1.40
2018-02-12T01:13:21.710Z,1.40
2018-02-12T01:15:49.225Z,1.30
2018-02-12T01:18:16.802Z,1.30
2018-02-12T01:20:44.317Z,1.30
2018-02-12T01:23:11.828Z,1.30
2018-02-12T01:25:39.365Z,1.30
2018-02-12T01:28:06.885Z,1.30
2018-02-12T01:30:34.426Z,1.30
2018-02-12T01:33:01.937Z,1.30
2018-02-12T01:35:30.239Z,1.40
2018-02-12T01:37:57.759Z,1.30
2018-02-12T01:40:26.062Z,1.40
2018-02-12T01:42:53.594Z,1.30
2018-02-12T01:45:21.122Z,1.30
2018-02-12T01:47:48.634Z,1.20
2018-02-12T01:50:19.757Z,1.10
2018-02-12T01:52:47.277Z,1.10
2018-02-12T01:55:14.812Z,1.10
2018-02-12T01:57:42.330Z,1.10
2018-02-12T02:00:09.870Z,1.10
2018-02-12T02:02:37.394Z,1.10
2018-02-12T02:05:04.925Z,1.10
2018-02-12T02:07:33.204Z,1.00
2018-02-12T02:10:01.549Z,1.00
2018-02-12T02:12:29.904Z,1.00
2018-02-12T02:14:57.417Z,1.00
2018-02-12T02:17:25.722Z,0.90
2018-02-12T02:19:53.246Z,0.90
2018-02-12T02:22:20.781Z,0.90
2018-02-12T02:24:48.296Z,0.90
2018-02-12T02:27:15.827Z,0.90
2018-02-12T02:29:43.333Z,0.90
2018-02-12T02:32:10.870Z,0.90
2018-02-12T02:34:39.147Z,0.80
2018-02-12T02:37:06.677Z,0.80
2018-02-12T02:39:34.193Z,0.80
2018-02-12T02:42:01.726Z,0.80
2018-02-12T02:44:30.004Z,0.80
2018-02-12T02:46:57.541Z,0.80
2018-02-12T02:49:25.152Z,0.80
2018-02-12T02:51:52.673Z,0.80
2018-02-12T02:54:20.953Z,0.80
2018-02-12T02:56:49.300Z,0.80
2018-02-12T02:59:16.811Z,0.80
2018-02-12T03:01:44.330Z,0.80
2018-02-12T03:04:11.861Z,0.90
2018-02-12T03:06:39.382Z,0.90
2018-02-12T03:09:07.672Z,0.90
2018-02-12T03:11:35.188Z,0.90
2018-02-12T03:14:02.731Z,1.00
2018-02-12T03:16:30.240Z,1.00
2018-02-12T03:18:57.769Z,1.00
2018-02-12T03:21:25.285Z,1.00
2018-02-12T03:23:52.820Z,0.90
2018-02-12T03:26:20.337Z,0.90
2018-02-12T03:28:47.880Z,0.80
2018-02-12T03:31:15.393Z,0.80
2018-02-12T03:33:43.696Z,0.70
2018-02-12T03:36:11.233Z,0.70
2018-02-12T03:38:39.541Z,0.60
2018-02-12T03:41:07.057Z,0.60
2018-02-12T03:43:35.374Z,0.70
2018-02-12T03:46:05.417Z,0.70
2018-02-12T03:48:32.948Z,0.70
2018-02-12T03:51:00.518Z,0.70
2018-02-12T03:53:28.043Z,0.70
2018-02-12T03:55:56.344Z,0.70
2018-02-12T03:58:23.861Z,0.70
2018-02-12T04:00:51.392Z,0.70
2018-02-12T04:03:18.901Z,0.70
2018-02-12T04:05:47.213Z,0.60
2018-02-12T04:08:14.745Z,0.50
2018-02-12T04:10:43.051Z,0.50
2018-02-12T04:13:10.568Z,0.50
2018-02-12T04:15:38.862Z,0.50
2018-02-12T04:18:07.138Z,0.50
2018-02-12T04:20:34.732Z,0.50
2018-02-12T04:23:02.249Z,0.50
2018-02-12T04:25:30.547Z,0.60
2018-02-12T04:27:58.058Z,0.60
2018-02-12T04:30:25.590Z,0.60
2018-02-12T04:32:53.123Z,0.60
2018-02-12T04:35:20.649Z,0.60
2018-02-12T04:37:48.163Z,0.60
2018-02-12T04:40:15.701Z,0.60
2018-02-12T04:42:43.217Z,0.60
2018-02-12T04:45:10.751Z,0.60
2018-02-12T04:47:38.253Z,0.60
2018-02-12T04:50:05.777Z,0.60
2018-02-12T04:52:33.312Z,0.70
2018-02-12T04:55:00.842Z,0.70
2018-02-12T04:57:29.122Z,0.70
2018-02-12T04:59:57.417Z,0.70
2018-02-12T05:02:24.998Z,0.70
2018-02-12T05:04:52.528Z,0.70
2018-02-12T05:07:20.796Z,0.80
2018-02-12T05:09:49.088Z,0.80
2018-02-12T05:12:17.357Z,0.80
2018-02-12T05:14:45.653Z,0.80
2018-02-12T05:17:13.156Z,0.80
2018-02-12T05:19:40.681Z,0.80
2018-02-12T05:22:08.216Z,0.80
2018-02-12T05:24:36.489Z,0.90
2018-02-12T05:27:04.786Z,0.80
2018-02-12T05:29:32.357Z,0.80
2018-02-12T05:31:59.881Z,0.80
2018-02-12T05:34:28.157Z,0.70
2018-02-12T05:36:56.482Z,0.60
2018-02-12T05:39:23.997Z,0.60
2018-02-12T05:44:26.249Z,0.60
2018-02-12T05:46:53.788Z,0.60
2018-02-12T05:49:21.303Z,0.50
2018-02-12T05:51:49.601Z,0.40
2018-02-12T05:54:17.119Z,0.40
2018-02-12T05:56:44.649Z,0.30
2018-02-12T05:59:12.156Z,0.30
2018-02-12T06:01:40.450Z,0.30
2018-02-12T06:04:08.724Z,0.30
2018-02-12T06:06:37.024Z,0.30
2018-02-12T06:09:04.552Z,0.30
2018-02-12T06:11:32.848Z,0.30
2018-02-12T06:14:00.354Z,0.30
2018-02-12T06:16:27.989Z,0.30
2018-02-12T06:18:55.502Z,0.30
2018-02-12T06:21:23.033Z,0.30
2018-02-12T06:23:50.541Z,0.20
2018-02-12T06:26:18.846Z,0.20
2018-02-12T06:28:46.353Z,0.20
2018-02-12T06:31:13.877Z,0.20
2018-02-12T06:33:41.420Z,0.20
2018-02-12T06:36:08.944Z,0.20
2018-02-12T06:38:36.457Z,0.20
2018-02-12T06:41:03.976Z,0.20
2018-02-12T06:43:32.252Z,0.20
2018-02-12T06:46:00.551Z,0.20
2018-02-12T06:48:28.126Z,0.20
2018-02-12T06:50:55.648Z,0.30
2018-02-12T06:53:23.917Z,0.30
2018-02-12T06:55:52.232Z,0.30
2018-02-12T06:58:19.741Z,0.30
2018-02-12T07:00:47.354Z,0.30
2018-02-12T07:03:14.858Z,0.40
2018-02-12T07:05:42.381Z,0.40
2018-02-12T07:08:09.894Z,0.40
2018-02-12T07:10:38.189Z,0.50
2018-02-12T07:13:06.493Z,0.60
2018-02-12T07:15:34.025Z,0.60
2018-02-12T07:18:02.297Z,0.70
2018-02-12T07:20:30.607Z,0.80
2018-02-12T07:22:58.162Z,0.80
2018-02-12T07:25:25.669Z,0.90
2018-02-12T07:27:53.280Z,0.90
2018-02-12T07:30:20.913Z,0.90
2018-02-12T07:32:49.236Z,0.80
2018-02-12T07:35:16.787Z,0.80
2018-02-12T07:37:44.313Z,0.80
2018-02-12T07:40:12.581Z,0.90
2018-02-12T07:42:40.115Z,0.90
2018-02-12T07:45:07.631Z,1.10
2018-02-12T07:47:35.165Z,1.30
2018-02-12T07:50:03.436Z,1.80
2018-02-12T07:52:30.969Z,1.70
2018-02-12T07:54:58.489Z,1.90
2018-02-12T07:57:26.023Z,2.00
2018-02-12T07:59:54.346Z,2.50
2018-02-12T08:02:21.882Z,2.50
2018-02-12T08:04:49.397Z,2.50
2018-02-12T08:07:16.927Z,2.60
2018-02-12T08:09:44.442Z,2.70
2018-02-12T08:12:12.751Z,2.30
2018-02-12T08:14:40.264Z,2.30
2018-02-12T08:17:07.807Z,2.10
2018-02-12T08:19:35.317Z,2.00
2018-02-12T08:22:02.849Z,1.90
2018-02-12T08:24:30.357Z,1.80
2018-02-12T08:26:57.885Z,1.60
2018-02-12T08:29:26.198Z,1.40
2018-02-12T08:31:53.740Z,1.50
2018-02-12T08:34:21.255Z,1.40
2018-02-12T08:36:48.781Z,1.40
2018-02-12T08:39:16.298Z,1.40
2018-02-12T08:41:44.614Z,1.30
2018-02-12T08:44:12.121Z,1.30
2018-02-12T08:46:39.729Z,1.40
2018-02-12T08:49:07.237Z,1.30
2018-02-12T08:51:34.854Z,1.30
2018-02-12T08:54:02.373Z,1.30
2018-02-12T08:56:30.684Z,1.40
2018-02-12T08:58:58.190Z,1.40
2018-02-12T09:01:25.733Z,1.40
2018-02-12T09:03:53.246Z,1.50
2018-02-12T09:06:20.785Z,1.60
2018-02-12T09:08:48.390Z,1.70
2018-02-12T09:11:15.905Z,1.90
2018-02-12T09:13:44.210Z,2.10
2018-02-12T09:16:11.788Z,2.10
2018-02-12T09:18:39.327Z,2.20
2018-02-12T09:21:06.842Z,2.30
2018-02-12T09:23:34.377Z,2.30
2018-02-12T09:26:01.912Z,2.30
2018-02-12T09:28:29.490Z,2.30
2018-02-12T09:30:57.041Z,2.30
2018-02-12T09:33:24.573Z,2.20
2018-02-12T09:35:52.853Z,2.20
2018-02-12T09:38:21.152Z,2.30
2018-02-12T09:40:48.671Z,2.30
2018-02-12T09:43:16.283Z,2.40
2018-02-12T09:45:43.802Z,2.40
2018-02-12T09:48:11.338Z,2.50
2018-02-12T09:50:38.862Z,2.60
2018-02-12T09:53:06.415Z,2.50
2018-02-12T09:55:33.945Z,2.50
2018-02-12T09:58:02.225Z,2.50
2018-02-12T10:00:30.526Z,2.80
2018-02-12T10:02:58.049Z,2.80
2018-02-12T10:05:26.353Z,3.70
2018-02-12T10:07:53.870Z,3.70
2018-02-12T10:10:22.176Z,3.50
2018-02-12T10:12:50.464Z,3.50
2018-02-12T10:15:18.761Z,3.40
2018-02-12T10:17:46.281Z,3.40
2018-02-12T10:20:13.814Z,3.30
2018-02-12T10:22:41.344Z,3.40
2018-02-12T10:25:08.880Z,3.50
2018-02-12T10:27:37.290Z,4.20
2018-02-12T10:30:04.876Z,4.20
2018-02-12T10:32:32.389Z,4.60
2018-02-12T10:34:59.926Z,4.70
2018-02-12T10:37:27.455Z,4.70
2018-02-12T10:39:54.964Z,4.70
2018-02-12T10:42:23.265Z,4.20
2018-02-12T10:44:50.777Z,4.20
2018-02-12T10:47:19.083Z,3.90
2018-02-12T10:49:46.674Z,3.90
2018-02-12T10:52:14.976Z,3.70
2018-02-12T10:54:43.261Z,3.20
2018-02-12T10:57:10.800Z,3.20
2018-02-12T10:59:38.321Z,3.10
2018-02-12T11:02:05.856Z,3.10
2018-02-12T11:04:34.178Z,3.40
2018-02-12T11:07:01.737Z,3.40
2018-02-12T11:09:29.253Z,3.60
2018-02-12T11:11:57.601Z,3.90
2018-02-12T11:14:25.120Z,3.90
2018-02-12T11:16:52.647Z,3.90
2018-02-12T11:19:20.173Z,3.70
2018-02-12T11:21:47.692Z,3.70
2018-02-12T11:24:15.237Z,3.50
2018-02-12T11:26:43.558Z,3.20
2018-02-12T11:29:11.114Z,3.20
2018-02-12T11:31:44.609Z,3.30
2018-02-12T11:34:12.168Z,3.50
2018-02-12T11:36:39.680Z,4.00
2018-02-12T11:39:07.219Z,4.30
2018-02-12T11:41:34.735Z,4.10
2018-02-12T11:44:02.268Z,3.80
2018-02-12T11:46:30.569Z,2.80
2018-02-12T11:48:58.101Z,2.70
2018-02-12T11:51:25.705Z,2.20
2018-02-12T11:53:53.274Z,2.00
2018-02-12T11:56:20.790Z,2.00
2018-02-12T11:58:49.105Z,3.40
2018-02-12T12:01:16.618Z,3.40
2018-02-12T12:03:44.229Z,4.40
2018-02-12T12:06:11.788Z,5.50
2018-02-12T12:08:39.316Z,6.30
2018-02-12T12:11:07.631Z,7.70
2018-02-12T12:13:35.162Z,7.70
2018-02-12T12:16:03.440Z,7.60
2018-02-12T12:18:31.740Z,7.00
2018-02-12T12:20:59.275Z,7.00
2018-02-12T12:23:27.552Z,5.50
2018-02-12T12:25:55.846Z,4.80
2018-02-12T12:28:23.358Z,4.80
2018-02-12T12:30:50.885Z,4.40
2018-02-12T12:33:18.393Z,3.90
2018-02-12T12:35:46.692Z,3.80
2018-02-12T12:38:14.202Z,3.70
2018-02-12T12:40:41.834Z,3.70
2018-02-12T12:43:09.390Z,3.70
2018-02-12T12:45:36.933Z,3.70
2018-02-12T12:48:04.512Z,3.80
2018-02-12T12:50:32.082Z,3.80
2018-02-12T12:52:59.637Z,3.80
2018-02-12T12:55:27.173Z,3.70
2018-02-12T12:57:55.449Z,3.50
2018-02-12T13:00:22.984Z,3.50
2018-02-12T13:02:50.492Z,3.50
2018-02-12T13:05:18.037Z,3.60
2018-02-12T13:07:45.583Z,3.70
2018-02-12T13:10:13.891Z,4.00
2018-02-12T13:12:41.427Z,3.90
2018-02-12T13:15:09.009Z,4.20
2018-02-12T13:17:36.577Z,4.20
2018-02-12T13:20:04.090Z,4.20
2018-02-12T13:22:32.392Z,4.10
2018-02-12T13:24:59.896Z,4.00
2018-02-12T13:27:27.432Z,4.10
2018-02-12T13:29:54.945Z,4.10
2018-02-12T13:32:24.188Z,4.10
2018-02-12T13:34:51.712Z,4.10
2018-02-12T13:37:20.009Z,4.10
2018-02-12T13:39:47.536Z,4.10
2018-02-12T13:42:15.861Z,4.20
2018-02-12T13:44:43.369Z,4.20
2018-02-12T13:47:10.983Z,4.10
2018-02-12T13:49:38.496Z,4.10
2018-02-12T13:52:06.003Z,4.10
2018-02-12T13:54:33.532Z,4.10
2018-02-12T13:57:01.838Z,3.90
2018-02-12T13:59:29.394Z,3.90
2018-02-12T14:01:56.908Z,3.80
2018-02-12T14:04:24.445Z,3.80
2018-02-12T14:06:51.974Z,3.70
2018-02-12T14:09:19.537Z,3.60
2018-02-12T14:11:47.092Z,3.60
2018-02-12T14:14:14.653Z,3.50
2018-02-12T14:16:42.166Z,3.40
2018-02-12T14:19:09.701Z,3.30
2018-02-12T14:21:37.218Z,2.80
2018-02-12T14:24:04.802Z,2.40
2018-02-12T14:26:32.311Z,2.10
2018-02-12T14:28:59.863Z,1.90
2018-02-12T14:31:27.381Z,1.70
2018-02-12T14:33:54.919Z,1.40
2018-02-12T14:36:22.430Z,1.30
2018-02-12T14:38:49.960Z,1.20
2018-02-12T14:41:17.477Z,1.10
2018-02-12T14:43:45.796Z,1.10
2018-02-12T14:46:13.309Z,1.00
2018-02-12T14:48:40.845Z,1.10
2018-02-12T14:51:08.371Z,1.20
2018-02-12T14:53:35.931Z,1.20
2018-02-12T14:56:03.472Z,1.30
2018-02-12T14:58:31.053Z,1.40
2018-02-12T15:00:58.602Z,1.50
2018-02-12T15:03:26.109Z,1.60
2018-02-12T15:05:53.733Z,1.60
2018-02-12T15:08:21.293Z,1.70
2018-02-12T15:10:48.823Z,1.70
2018-02-12T15:13:17.098Z,1.80
2018-02-12T15:15:47.097Z,1.70
2018-02-12T15:18:14.609Z,1.80
2018-02-12T15:20:42.189Z,1.60
2018-02-12T15:23:09.680Z,1.50
2018-02-12T15:25:37.284Z,1.40
2018-02-12T15:28:04.798Z,1.30
2018-02-12T15:30:32.329Z,1.30
2018-02-12T15:32:59.841Z,1.30
2018-02-12T15:35:28.141Z,1.50
2018-02-12T15:37:56.533Z,1.50
2018-02-12T15:40:24.190Z,1.60
2018-02-12T15:42:51.702Z,1.50
2018-02-12T15:45:20.000Z,1.60
2018-02-12T15:47:48.408Z,1.50
2018-02-12T15:50:15.928Z,1.50
2018-02-12T15:52:44.244Z,1.40
2018-02-12T15:55:11.761Z,1.40
2018-02-12T15:57:40.054Z,1.30
2018-02-12T16:00:07.565Z,1.30
2018-02-12T16:02:35.093Z,1.30
2018-02-12T16:05:02.605Z,1.20
2018-02-12T16:07:30.143Z,1.20
2018-02-12T16:09:57.671Z,1.20
2018-02-12T16:12:25.204Z,1.10
2018-02-12T16:14:53.486Z,1.00
2018-02-12T16:17:21.795Z,0.90
2018-02-12T16:19:49.356Z,0.90
2018-02-12T16:22:16.889Z,0.90
2018-02-12T16:24:45.164Z,0.70
2018-02-12T16:27:13.473Z,0.70
2018-02-12T16:29:40.991Z,0.60
2018-02-12T16:32:08.516Z,0.60
2018-02-12T16:34:36.054Z,0.50
2018-02-12T16:37:03.561Z,0.40
2018-02-12T16:39:31.170Z,0.40
2018-02-12T16:41:58.683Z,0.30
2018-02-12T16:44:26.209Z,0.20
2018-02-12T16:46:53.712Z,0.20
2018-02-12T16:49:22.012Z,0.10
2018-02-12T16:51:49.588Z,0.10
2018-02-12T16:54:17.108Z,0.10
2018-02-12T16:56:44.620Z,0.00
2018-02-12T16:59:12.156Z,-0.10
2018-02-12T17:01:39.680Z,-0.20
2018-02-12T17:04:07.294Z,-0.20
2018-02-12T17:06:34.849Z,-0.30
2018-02-12T17:09:02.382Z,-0.30
2018-02-12T17:11:29.894Z,-0.30
2018-02-12T17:13:57.430Z,-0.40
2018-02-12T17:16:24.945Z,-0.40
2018-02-12T17:18:52.549Z,-0.50
2018-02-12T17:21:20.114Z,-0.50
2018-02-12T17:23:47.648Z,-0.60
2018-02-12T17:26:15.924Z,-0.60
2018-02-12T17:28:44.217Z,-0.60
2018-02-12T17:31:11.725Z,-0.70
2018-02-12T17:33:39.253Z,-0.70
2018-02-12T17:36:06.772Z,-0.80
2018-02-12T17:38:35.108Z,-1.00
2018-02-12T17:41:02.621Z,-1.00
2018-02-12T17:43:30.898Z,-1.10
2018-02-12T17:45:59.196Z,-1.10
2018-02-12T17:48:26.766Z,-1.10
2018-02-12T17:50:54.308Z,-1.10
2018-02-12T17:53:21.893Z,-1.10
2018-02-12T17:55:49.425Z,-1.10
2018-02-12T17:58:17.700Z,-1.20
2018-02-12T18:00:46.065Z,-1.30
2018-02-12T18:03:13.541Z,-1.30
2018-02-12T18:05:41.828Z,-1.60
2018-02-12T18:08:09.353Z,-1.60
2018-02-12T18:10:36.876Z,-1.60
2018-02-12T18:13:04.388Z,-1.70
2018-02-12T18:15:32.703Z,-1.80
2018-02-12T18:18:00.216Z,-1.80
2018-02-12T18:20:28.517Z,-1.70
2018-02-12T18:22:56.037Z,-1.80
2018-02-12T18:25:23.572Z,-1.70
2018-02-12T18:27:51.087Z,-1.80
2018-02-12T18:30:19.425Z,-2.20
2018-02-12T18:32:46.984Z,-2.20
2018-02-12T18:35:14.468Z,-2.30
2018-02-12T18:37:42.001Z,-2.30
2018-02-12T18:40:09.513Z,-2.40
2018-02-12T18:42:37.101Z,-2.40
2018-02-12T18:45:04.616Z,-2.30
2018-02-12T18:47:32.939Z,-2.30
2018-02-12T18:50:00.468Z,-2.30
2018-02-12T18:52:28.772Z,-2.10
2018-02-12T18:54:56.288Z,-2.20
2018-02-12T18:57:24.589Z,-2.40
2018-02-12T18:59:52.100Z,-2.40
2018-02-12T19:02:19.680Z,-2.50
2018-02-12T19:04:47.285Z,-2.50
2018-02-12T19:07:14.854Z,-2.50
2018-02-12T19:09:42.409Z,-2.50
2018-02-12T19:12:09.925Z,-2.50
2018-02-12T19:14:37.525Z,-2.50
2018-02-12T19:17:05.043Z,-2.50
2018-02-12T19:19:32.577Z,-2.40
2018-02-12T19:22:00.097Z,-2.40
2018-02-12T19:24:27.637Z,-2.40
2018-02-12T19:26:55.918Z,-2.40
2018-02-12T19:29:24.217Z,-2.50
2018-02-12T19:31:51.740Z,-2.50
2018-02-12T19:34:20.792Z,-2.80
2018-02-12T19:36:48.301Z,-2.80
2018-02-12T19:39:16.617Z,-2.90
2018-02-12T19:41:44.133Z,-2.90
2018-02-12T19:44:11.667Z,-2.90
2018-02-12T19:46:39.183Z,-2.90
2018-02-12T19:49:06.766Z,-3.00
2018-02-12T19:51:34.301Z,-3.00
2018-02-12T19:54:02.724Z,-3.10
2018-02-12T19:56:30.256Z,-3.10
2018-02-12T19:58:57.786Z,-3.10
2018-02-12T20:01:26.058Z,-3.00
2018-02-12T20:03:54.364Z,-3.00
2018-02-12T20:06:21.872Z,-3.00
2018-02-12T20:08:49.498Z,-3.00
2018-02-12T20:11:17.020Z,-3.00
2018-02-12T20:13:45.316Z,-3.10
2018-02-12T20:16:13.624Z,-3.00
2018-02-12T20:18:41.160Z,-3.10
2018-02-12T20:21:09.457Z,-3.00
2018-02-12T20:23:36.977Z,-3.00
2018-02-12T20:26:04.517Z,-3.00
2018-02-12T20:28:32.041Z,-3.10
2018-02-12T20:30:59.576Z,-3.10
2018-02-12T20:33:27.854Z,-3.20
2018-02-12T20:35:56.144Z,-3.20
2018-02-12T20:38:23.728Z,-3.20
2018-02-12T20:40:51.283Z,-3.30
2018-02-12T20:43:18.812Z,-3.30
2018-02-12T20:45:47.108Z,-3.30
2018-02-12T20:48:14.682Z,-3.30
2018-02-12T20:50:42.217Z,-3.30
2018-02-12T20:53:10.500Z,-3.20
2018-02-12T20:55:38.801Z,-3.20
2018-02-12T20:58:06.327Z,-3.20
2018-02-12T21:00:33.876Z,-3.20
2018-02-12T21:03:01.390Z,-3.30
2018-02-12T21:05:28.926Z,-3.30
2018-02-12T21:07:56.436Z,-3.20
2018-02-12T21:10:24.009Z,-3.10
2018-02-12T21:12:51.533Z,-3.00
2018-02-12T21:15:19.084Z,-2.90
2018-02-12T21:17:46.641Z,-2.80
2018-02-12T21:20:14.202Z,-2.80
2018-02-12T21:22:41.765Z,-2.70
2018-02-12T21:25:09.285Z,-2.60
2018-02-12T21:27:37.589Z,-2.60
2018-02-12T21:30:05.107Z,-2.60
2018-02-12T21:32:32.646Z,-2.60
2018-02-12T21:35:00.166Z,-2.60
2018-02-12T21:37:27.745Z,-2.60
2018-02-12T21:39:55.305Z,-2.70
2018-02-12T21:42:22.836Z,-2.70
2018-02-12T21:44:51.125Z,-2.60
2018-02-12T21:47:18.658Z,-2.70
2018-02-12T21:49:46.943Z,-2.60
2018-02-12T21:52:15.249Z,-2.50
2018-02-12T21:54:42.765Z,-2.50
2018-02-12T21:57:10.302Z,-2.50
2018-02-12T21:59:37.822Z,-2.40
2018-02-12T22:02:05.361Z,-2.40
2018-02-12T22:04:33.670Z,-2.30
2018-02-12T22:07:01.211Z,-2.30
2018-02-12T22:09:28.736Z,-2.30
2018-02-12T22:11:56.253Z,-2.30
2018-02-12T22:14:23.788Z,-2.30
2018-02-12T22:16:52.073Z,-2.30
2018-02-12T22:19:19.605Z,-2.40
2018-02-12T22:21:47.209Z,-2.40
2018-02-12T22:24:14.769Z,-2.40
2018-02-12T22:26:42.285Z,-2.50
2018-02-12T22:29:09.822Z,-2.50
2018-02-12T22:31:37.337Z,-2.60
2018-02-12T22:34:04.869Z,-2.60
2018-02-12T22:36:33.149Z,-2.70
2018-02-12T22:39:01.462Z,-2.80
2018-02-12T22:41:28.981Z,-2.80
2018-02-12T22:43:56.584Z,-2.80
2018-02-12T22:46:24.145Z,-2.90
2018-02-12T22:48:51.676Z,-2.90
2018-02-12T22:51:19.957Z,-2.90
2018-02-12T22:53:48.367Z,-2.90
2018-02-12T22:56:15.932Z,-2.90
2018-02-12T22:58:43.464Z,-2.90
2018-02-12T23:01:11.753Z,-3.10
2018-02-12T23:03:39.289Z,-3.10
2018-02-12T23:06:07.575Z,-3.30
2018-02-12T23:08:35.950Z,-3.40
2018-02-12T23:11:04.228Z,-3.60
2018-02-12T23:13:32.514Z,-3.80
2018-02-12T23:16:02.713Z,-3.80
2018-02-12T23:18:30.229Z,-3.80
2018-02-12T23:20:57.773Z,-3.80
2018-02-12T23:23:25.292Z,-3.80
2018-02-12T23:25:52.897Z,-3.70
2018-02-12T23:28:20.461Z,-3.70
2018-02-12T23:30:47.993Z,-3.60
2018-02-12T23:33:16.273Z,-3.50
2018-02-12T23:35:44.583Z,-3.50
2018-02-12T23:38:12.105Z,-3.50
2018-02-12T23:40:40.404Z,-3.60
2018-02-12T23:43:07.976Z,-3.60
2018-02-12T23:45:35.509Z,-3.70
2018-02-12T23:48:03.799Z,-3.80
2018-02-12T23:50:31.379Z,-3.80
2018-02-12T23:52:58.935Z,-3.80
2018-02-12T23:55:26.475Z,-3.80
2018-02-12T23:57:53.989Z,-3.70
